createdAt,value
2022-11-16T00:01:13.621Z,12.80
2022-11-16T00:03:41.942Z,13.00
2022-11-16T00:06:12.114Z,10.38
2022-11-16T00:08:42.370Z,13.13
2022-11-16T00:11:11.461Z,14.32
2022-11-16T00:13:42.410Z,14.50
2022-11-16T00:16:18.009Z,13.73
2022-11-16T00:18:45.510Z,13.65
2022-11-16T00:21:15.987Z,11.40
2022-11-16T00:23:43.503Z,11.95
2022-11-16T00:26:12.931Z,12.00
2022-11-16T00:28:40.376Z,18.33
2022-11-16T00:31:10.263Z,12.25
2022-11-16T00:33:38.743Z,13.05
2022-11-16T00:36:12.507Z,13.23
2022-11-16T00:38:41.293Z,13.37
2022-11-16T00:41:09.820Z,11.35
2022-11-16T00:43:37.656Z,14.05
2022-11-16T00:46:05.818Z,14.02
2022-11-16T00:48:33.704Z,14.57
2022-11-16T00:51:01.619Z,13.05
2022-11-16T00:53:29.168Z,12.55
2022-11-16T00:55:56.793Z,11.82
2022-11-16T00:58:24.958Z,14.57
2022-11-16T01:01:05.973Z,13.35
2022-11-16T01:03:34.714Z,11.45
2022-11-16T01:06:04.551Z,13.00
2022-11-16T01:08:32.931Z,15.13
2022-11-16T01:11:22.056Z,12.65
2022-11-16T01:13:49.904Z,13.23
2022-11-16T01:16:19.004Z,12.88
2022-11-16T01:18:54.538Z,17.70
2022-11-16T01:21:23.264Z,12.25
2022-11-16T01:23:51.981Z,14.75
2022-11-16T01:26:19.664Z,13.55
2022-11-16T01:28:48.447Z,15.15
2022-11-16T01:31:16.108Z,13.65
2022-11-16T01:33:43.786Z,13.45
2022-11-16T01:36:22.352Z,12.52
2022-11-16T01:38:50.797Z,14.07
2022-11-16T01:41:25.966Z,17.30
2022-11-16T01:44:05.986Z,18.02
2022-11-16T01:46:42.772Z,13.40
2022-11-16T01:49:17.959Z,14.25
2022-11-16T01:51:51.532Z,11.73
2022-11-16T01:54:24.122Z,13.55
2022-11-16T01:57:03.750Z,14.98
2022-11-16T01:59:41.380Z,12.75
2022-11-16T02:02:16.582Z,13.98
2022-11-16T02:04:45.933Z,13.73
2022-11-16T02:07:31.858Z,16.15
2022-11-16T02:10:05.784Z,12.25
2022-11-16T02:13:00.329Z,17.60
2022-11-16T02:15:51.847Z,13.20
2022-11-16T02:18:37.980Z,13.57
2022-11-16T02:21:14.693Z,13.77
2022-11-16T02:24:04.501Z,11.55
2022-11-16T02:27:15.044Z,13.95
2022-11-16T02:29:52.001Z,16.10
2022-11-16T02:32:39.936Z,13.32
2022-11-16T02:35:33.719Z,15.85
2022-11-16T02:38:37.299Z,16.30
2022-11-16T02:41:10.729Z,15.13
2022-11-16T02:43:44.870Z,15.27
2022-11-16T02:46:26.254Z,16.40
2022-11-16T02:48:57.774Z,15.98
2022-11-16T02:51:28.505Z,16.98
2022-11-16T02:54:10.841Z,16.13
2022-11-16T02:56:46.694Z,15.90
2022-11-16T02:59:17.625Z,16.52
2022-11-16T03:02:02.579Z,18.63
2022-11-16T03:04:40.888Z,16.27
2022-11-16T03:07:12.473Z,15.60
2022-11-16T03:09:42.997Z,21.98
2022-11-16T03:12:15.072Z,16.58
2022-11-16T03:14:49.253Z,17.33
2022-11-16T03:17:38.742Z,17.70
2022-11-16T03:20:17.610Z,14.98
2022-11-16T03:22:48.589Z,17.70
2022-11-16T03:25:21.284Z,19.42
2022-11-16T03:27:59.254Z,18.60
2022-11-16T03:30:30.520Z,16.60
2022-11-16T03:33:04.402Z,15.48
2022-11-16T03:40:43.339Z,16.27
2022-11-16T03:53:58.237Z,8.55
2022-11-16T04:01:44.557Z,12.23
2022-11-16T04:09:29.050Z,11.18
2022-11-16T04:16:32.653Z,11.35
2022-11-16T04:19:18.824Z,12.07
2022-11-16T04:22:14.907Z,9.63
2022-11-16T04:24:45.424Z,8.45
2022-11-16T04:27:33.869Z,10.32
2022-11-16T04:30:03.679Z,16.00
2022-11-16T04:36:14.407Z,9.82
2022-11-16T04:38:45.501Z,8.40
2022-11-16T04:41:34.264Z,11.55
2022-11-16T04:44:02.147Z,11.00
2022-11-16T04:46:48.436Z,9.93
2022-11-16T04:49:15.939Z,11.23
2022-11-16T04:51:47.748Z,9.95
2022-11-16T04:54:49.562Z,12.90
2022-11-16T04:57:18.017Z,10.70
2022-11-16T04:59:47.004Z,8.57
2022-11-16T05:02:15.248Z,11.85
2022-11-16T05:04:56.178Z,9.95
2022-11-16T05:07:28.805Z,10.90
2022-11-16T05:10:05.445Z,12.65
2022-11-16T05:12:39.327Z,9.05
2022-11-16T05:15:46.805Z,12.38
2022-11-16T05:18:18.430Z,11.13
2022-11-16T05:25:17.312Z,11.05
2022-11-16T05:35:44.997Z,11.15
2022-11-16T05:49:17.846Z,8.50
2022-11-16T05:51:54.317Z,12.15
2022-11-16T05:54:33.978Z,11.38
2022-11-16T05:57:15.473Z,13.57
2022-11-16T05:59:44.447Z,12.38
2022-11-16T06:02:25.276Z,9.85
2022-11-16T06:05:40.924Z,10.90
2022-11-16T06:08:48.003Z,13.65
2022-11-16T06:30:26.904Z,12.63
2022-11-16T06:35:05.397Z,11.05
2022-11-16T06:57:13.110Z,11.45
2022-11-16T06:59:43.311Z,11.98
2022-11-16T07:02:14.466Z,16.10
2022-11-16T07:20:17.318Z,11.95
2022-11-16T07:23:14.216Z,8.30
2022-11-16T07:34:04.101Z,11.10
2022-11-16T07:48:11.257Z,9.70
2022-11-16T07:51:16.291Z,10.77
2022-11-16T07:54:14.608Z,8.55
2022-11-16T07:57:30.453Z,8.52
2022-11-16T08:00:13.776Z,14.43
2022-11-16T08:03:39.420Z,9.63
2022-11-16T08:07:19.701Z,12.02
2022-11-16T08:13:30.018Z,7.07
2022-11-16T08:19:52.277Z,9.35
2022-11-16T08:23:06.922Z,9.27
2022-11-16T08:26:19.422Z,6.15
2022-11-16T08:32:45.700Z,6.45
2022-11-16T08:35:48.093Z,9.00
2022-11-16T08:38:37.606Z,5.50
2022-11-16T08:42:19.071Z,9.18
2022-11-16T08:44:58.877Z,6.78
2022-11-16T08:47:53.619Z,8.05
2022-11-16T08:51:16.337Z,7.70
2022-11-16T08:53:54.795Z,9.98
2022-11-16T08:56:48.413Z,7.03
2022-11-16T08:59:23.456Z,13.13
2022-11-16T09:01:58.165Z,10.65
2022-11-16T09:05:06.602Z,8.35
2022-11-16T09:07:46.043Z,5.85
2022-11-16T09:10:19.039Z,10.85
2022-11-16T09:12:50.524Z,7.35
2022-11-16T09:15:36.766Z,8.65
2022-11-16T09:18:07.568Z,6.45
2022-11-16T09:20:38.228Z,10.57
2022-11-16T09:23:18.724Z,5.10
2022-11-16T09:28:43.092Z,11.05
2022-11-16T09:31:11.643Z,6.35
2022-11-16T09:33:43.107Z,6.95
2022-11-16T09:36:12.044Z,10.30
2022-11-16T09:39:29.041Z,7.35
2022-11-16T09:42:06.754Z,11.43
2022-11-16T09:45:04.862Z,10.05
2022-11-16T09:47:54.501Z,8.20
2022-11-16T09:50:34.051Z,10.50
2022-11-16T09:53:18.545Z,9.25
2022-11-16T09:56:19.160Z,11.43
2022-11-16T09:58:56.504Z,11.23
2022-11-16T10:01:36.934Z,6.93
2022-11-16T10:04:17.667Z,8.75
2022-11-16T10:06:58.860Z,8.27
2022-11-16T10:09:30.039Z,5.28
2022-11-16T10:12:17.044Z,5.90
2022-11-16T10:15:17.062Z,5.70
2022-11-16T10:18:33.322Z,8.73
2022-11-16T10:21:44.585Z,4.75
2022-11-16T10:24:38.588Z,5.43
2022-11-16T10:27:54.496Z,6.00
2022-11-16T10:30:27.348Z,4.80
2022-11-16T10:33:12.777Z,12.70
2022-11-16T10:35:52.353Z,5.15
2022-11-16T10:38:34.351Z,6.80
2022-11-16T10:41:05.566Z,6.00
2022-11-16T10:43:33.899Z,7.53
2022-11-16T10:46:36.108Z,4.97
2022-11-16T10:49:33.239Z,10.38
2022-11-16T10:52:00.750Z,6.72
2022-11-16T10:54:28.191Z,6.82
2022-11-16T10:57:05.734Z,7.13
2022-11-16T10:59:53.292Z,8.35
2022-11-16T11:02:35.633Z,5.15
2022-11-16T11:05:25.481Z,5.45
2022-11-16T11:08:06.348Z,6.88
2022-11-16T11:10:37.694Z,5.68
2022-11-16T11:13:28.918Z,5.47
2022-11-16T11:16:17.357Z,4.03
2022-11-16T11:18:47.479Z,13.98
2022-11-16T11:21:20.521Z,6.72
2022-11-16T11:23:54.367Z,3.40
2022-11-16T11:26:37.323Z,5.65
2022-11-16T11:29:27.546Z,8.73
2022-11-16T11:32:22.380Z,6.80
2022-11-16T11:34:54.123Z,12.25
2022-11-16T11:37:27.921Z,8.15
2022-11-16T11:40:28.765Z,7.50
2022-11-16T11:42:59.969Z,7.35
2022-11-16T11:45:41.502Z,7.05
2022-11-16T11:48:35.969Z,7.35
2022-11-16T11:51:19.411Z,9.37
2022-11-16T11:54:09.606Z,6.20
2022-11-16T11:56:39.552Z,6.72
2022-11-16T11:59:07.106Z,7.63
2022-11-16T12:01:56.621Z,3.78
2022-11-16T12:04:33.073Z,4.97
2022-11-16T12:07:31.672Z,7.90
2022-11-16T12:10:24.489Z,5.22
2022-11-16T12:13:04.464Z,3.63
2022-11-16T12:15:36.546Z,5.65
2022-11-16T12:18:24.145Z,9.73
2022-11-16T12:21:06.154Z,6.18
2022-11-16T12:24:17.629Z,5.43
2022-11-16T12:26:59.098Z,3.30
2022-11-16T12:29:34.391Z,3.78
2022-11-16T12:32:37.860Z,5.78
2022-11-16T12:35:32.154Z,7.25
2022-11-16T12:38:28.049Z,7.83
2022-11-16T12:41:18.568Z,3.95
2022-11-16T12:44:02.012Z,10.23
2022-11-16T12:46:52.269Z,4.57
2022-11-16T12:49:38.728Z,6.05
2022-11-16T12:52:44.893Z,7.75
2022-11-16T12:55:36.950Z,8.77
2022-11-16T12:58:31.808Z,3.70
2022-11-16T13:04:21.999Z,7.78
2022-11-16T13:06:56.510Z,5.35
2022-11-16T13:12:04.935Z,6.53
2022-11-16T13:14:41.794Z,8.38
2022-11-16T13:17:32.088Z,6.85
2022-11-16T13:20:29.711Z,3.97
2022-11-16T13:23:32.601Z,7.22
2022-11-16T13:26:26.976Z,8.70
2022-11-16T13:29:23.258Z,6.00
2022-11-16T13:32:07.511Z,4.05
2022-11-16T13:34:38.871Z,8.60
2022-11-16T13:37:37.413Z,2.60
2022-11-16T13:40:25.302Z,5.82
2022-11-16T13:43:01.588Z,3.35
2022-11-16T13:45:59.798Z,4.75
2022-11-16T13:48:38.554Z,2.45
2022-11-16T13:51:09.077Z,5.57
2022-11-16T13:56:51.867Z,5.88
2022-11-16T13:59:26.480Z,4.85
2022-11-16T14:04:41.802Z,3.38
2022-11-16T14:07:49.875Z,4.60
2022-11-16T14:10:35.938Z,6.45
2022-11-16T14:13:04.796Z,4.38
2022-11-16T14:15:37.312Z,8.10
2022-11-16T14:18:07.722Z,2.83
2022-11-16T14:20:38.343Z,4.13
2022-11-16T14:23:29.516Z,7.40
2022-11-16T14:26:02.945Z,8.13
2022-11-16T14:28:45.512Z,9.13
2022-11-16T14:31:12.899Z,5.20
2022-11-16T14:33:40.413Z,5.22
2022-11-16T14:36:09.925Z,6.05
2022-11-16T14:38:39.955Z,7.55
2022-11-16T14:41:21.076Z,7.32
2022-11-16T14:43:52.845Z,4.35
2022-11-16T14:46:30.316Z,3.13
2022-11-16T14:49:01.214Z,3.22
2022-11-16T14:51:38.157Z,3.63
2022-11-16T14:54:18.249Z,7.45
2022-11-16T14:57:20.543Z,5.32
2022-11-16T14:59:47.991Z,8.45
2022-11-16T15:02:24.505Z,12.48
2022-11-16T15:04:53.231Z,6.07
2022-11-16T15:07:23.777Z,10.50
2022-11-16T15:09:54.565Z,5.03
2022-11-16T15:12:41.316Z,4.35
2022-11-16T15:15:17.004Z,6.88
2022-11-16T15:17:47.074Z,5.78
2022-11-16T15:20:24.108Z,3.50
2022-11-16T15:22:54.698Z,3.53
2022-11-16T15:25:32.153Z,5.70
2022-11-16T15:28:29.905Z,6.30
2022-11-16T15:31:04.533Z,3.13
2022-11-16T15:36:30.170Z,5.32
2022-11-16T15:38:59.824Z,6.43
2022-11-16T15:41:29.291Z,7.13
2022-11-16T15:44:16.765Z,3.42
2022-11-16T15:46:51.211Z,4.45
2022-11-16T15:49:49.795Z,8.63
2022-11-16T15:52:45.059Z,6.57
2022-11-16T15:55:21.573Z,5.07
2022-11-16T15:58:22.267Z,5.82
2022-11-16T16:00:49.923Z,7.55
2022-11-16T16:03:26.709Z,5.30
2022-11-16T16:05:55.417Z,9.98
2022-11-16T16:08:37.711Z,3.15
2022-11-16T16:11:25.477Z,4.35
2022-11-16T16:13:59.757Z,6.40
2022-11-16T16:16:36.224Z,9.98
2022-11-16T16:19:23.510Z,5.80
2022-11-16T16:21:51.091Z,5.65
2022-11-16T16:24:57.273Z,8.93
2022-11-16T16:27:26.793Z,9.02
2022-11-16T16:29:57.225Z,3.47
2022-11-16T16:32:28.680Z,8.75
2022-11-16T16:34:58.761Z,4.63
2022-11-16T16:37:27.723Z,4.38
2022-11-16T16:39:55.056Z,5.80
2022-11-16T16:42:22.695Z,8.38
2022-11-16T16:44:50.546Z,13.13
2022-11-16T16:47:20.715Z,9.27
2022-11-16T16:49:48.919Z,6.63
2022-11-16T16:52:16.680Z,6.28
2022-11-16T16:54:44.386Z,8.32
2022-11-16T16:57:16.804Z,8.93
2022-11-16T16:59:45.598Z,8.10
2022-11-16T17:02:13.384Z,7.25
2022-11-16T17:04:41.242Z,9.30
2022-11-16T17:07:08.674Z,8.20
2022-11-16T17:09:36.107Z,7.72
2022-11-16T17:12:03.602Z,9.93
2022-11-16T17:14:30.909Z,9.77
2022-11-16T17:16:59.045Z,6.97
2022-11-16T17:19:29.735Z,5.78
2022-11-16T17:21:57.162Z,4.47
2022-11-16T17:24:24.597Z,8.48
2022-11-16T17:26:52.129Z,5.05
2022-11-16T17:29:19.605Z,8.93
2022-11-16T17:31:47.681Z,9.90
2022-11-16T17:34:15.099Z,7.43
2022-11-16T17:36:43.365Z,8.27
2022-11-16T17:39:10.780Z,4.80
2022-11-16T17:41:38.198Z,8.82
2022-11-16T17:44:06.295Z,8.68
2022-11-16T17:46:33.667Z,7.60
2022-11-16T17:49:01.392Z,7.93
2022-11-16T17:51:31.528Z,6.00
2022-11-16T17:53:59.051Z,5.43
2022-11-16T17:56:28.094Z,7.40
2022-11-16T17:58:58.433Z,8.15
2022-11-16T18:01:26.323Z,11.45
2022-11-16T18:03:54.066Z,10.90
2022-11-16T18:06:23.676Z,6.63
2022-11-16T18:08:51.551Z,6.80
2022-11-16T18:11:25.054Z,6.47
2022-11-16T18:14:01.627Z,4.93
2022-11-16T18:16:31.728Z,5.18
2022-11-16T18:19:01.460Z,6.95
2022-11-16T18:21:29.780Z,6.43
2022-11-16T18:23:59.545Z,5.25
2022-11-16T18:26:26.857Z,5.40
2022-11-16T18:28:54.270Z,5.05
2022-11-16T18:31:23.794Z,4.90
2022-11-16T18:33:52.052Z,6.35
2022-11-16T18:36:20.847Z,5.25
2022-11-16T18:38:48.531Z,7.20
2022-11-16T18:41:20.068Z,4.72
2022-11-16T18:43:58.411Z,5.65
2022-11-16T18:46:32.156Z,8.90
2022-11-16T18:49:00.299Z,6.63
2022-11-16T18:51:28.547Z,5.85
2022-11-16T18:53:56.444Z,5.03
2022-11-16T18:56:25.005Z,4.97
2022-11-16T18:58:53.387Z,7.85
2022-11-16T19:01:24.266Z,7.18
2022-11-16T19:03:53.391Z,5.80
2022-11-16T19:06:21.892Z,6.15
2022-11-16T19:08:56.345Z,4.55
2022-11-16T19:13:59.962Z,4.82
2022-11-16T19:16:27.816Z,6.50
2022-11-16T19:18:55.652Z,9.57
2022-11-16T19:21:23.722Z,6.90
2022-11-16T19:23:53.514Z,4.82
2022-11-16T19:26:23.459Z,7.85
2022-11-16T19:28:51.913Z,6.40
2022-11-16T19:31:24.975Z,6.32
2022-11-16T19:34:00.788Z,4.10
2022-11-16T19:36:29.459Z,6.57
2022-11-16T19:38:56.925Z,4.57
2022-11-16T19:41:25.112Z,8.10
2022-11-16T19:43:57.284Z,4.75
2022-11-16T19:46:29.560Z,6.40
2022-11-16T19:48:57.467Z,4.85
2022-11-16T19:51:28.142Z,6.63
2022-11-16T19:53:56.196Z,4.13
2022-11-16T19:56:24.260Z,10.32
2022-11-16T19:58:52.024Z,5.45
2022-11-16T20:01:22.974Z,7.53
2022-11-16T20:03:50.639Z,4.80
2022-11-16T20:06:19.748Z,4.32
2022-11-16T20:08:49.667Z,6.38
2022-11-16T20:11:23.157Z,5.38
2022-11-16T20:13:52.001Z,4.25
2022-11-16T20:16:23.331Z,3.63
2022-11-16T20:18:51.852Z,4.63
2022-11-16T20:21:21.711Z,4.05
2022-11-16T20:23:49.710Z,3.92
2022-11-16T20:26:17.417Z,7.07
2022-11-16T20:28:45.004Z,7.28
2022-11-16T20:31:15.024Z,5.00
2022-11-16T20:33:49.089Z,5.78
2022-11-16T20:36:16.579Z,5.80
2022-11-16T20:38:43.889Z,8.30
2022-11-16T20:41:19.607Z,6.10
2022-11-16T20:43:49.628Z,3.90
2022-11-16T20:46:18.895Z,5.70
2022-11-16T20:48:46.861Z,6.65
2022-11-16T20:51:19.360Z,4.38
2022-11-16T20:53:48.265Z,5.18
2022-11-16T20:56:17.273Z,5.70
2022-11-16T20:58:44.758Z,5.78
2022-11-16T21:01:28.107Z,5.28
2022-11-16T21:03:56.280Z,4.22
2022-11-16T21:06:24.078Z,9.10
2022-11-16T21:08:52.117Z,6.05
2022-11-16T21:11:23.133Z,4.35
2022-11-16T21:14:08.902Z,9.35
2022-11-16T21:16:36.785Z,3.78
2022-11-16T21:19:04.611Z,5.28
2022-11-16T21:21:32.419Z,6.38
2022-11-16T21:24:00.607Z,3.40
2022-11-16T21:26:32.446Z,4.68
2022-11-16T21:29:01.447Z,3.63
2022-11-16T21:31:31.122Z,5.35
2022-11-16T21:34:02.668Z,6.13
2022-11-16T21:36:31.961Z,2.60
2022-11-16T21:39:01.259Z,3.30
2022-11-16T21:41:30.841Z,5.65
2022-11-16T21:43:58.271Z,4.22
2022-11-16T21:46:26.786Z,7.97
2022-11-16T21:48:56.462Z,5.20
2022-11-16T21:51:27.237Z,2.92
2022-11-16T21:53:55.843Z,3.90
2022-11-16T21:56:25.240Z,3.72
2022-11-16T21:58:53.916Z,7.20
2022-11-16T22:01:23.295Z,5.13
2022-11-16T22:04:10.811Z,3.85
2022-11-16T22:06:57.005Z,3.55
2022-11-16T22:09:24.452Z,5.78
2022-11-16T22:11:51.800Z,5.20
2022-11-16T22:14:19.212Z,3.78
2022-11-16T22:16:46.632Z,3.45
2022-11-16T22:19:14.007Z,3.80
2022-11-16T22:21:41.326Z,5.70
2022-11-16T22:24:08.854Z,3.78
2022-11-16T22:26:37.952Z,4.28
2022-11-16T22:29:05.473Z,5.82
2022-11-16T22:31:33.768Z,3.85
2022-11-16T22:34:01.180Z,4.38
2022-11-16T22:36:28.543Z,6.78
2022-11-16T22:38:57.113Z,4.43
2022-11-16T22:41:24.634Z,3.85
2022-11-16T22:43:52.107Z,7.80
2022-11-16T22:46:19.624Z,3.75
2022-11-16T22:48:47.923Z,6.65
2022-11-16T22:51:19.850Z,8.27
2022-11-16T22:53:47.391Z,3.20
2022-11-16T22:56:14.909Z,5.53
2022-11-16T22:58:42.413Z,5.07
2022-11-16T23:01:09.962Z,3.63
2022-11-16T23:03:38.616Z,4.95
2022-11-16T23:06:07.397Z,8.35
2022-11-16T23:08:43.125Z,3.40
2022-11-16T23:11:44.524Z,9.43
2022-11-16T23:14:35.507Z,4.43
2022-11-16T23:17:13.418Z,3.53
2022-11-16T23:19:59.354Z,5.47
2022-11-16T23:22:50.988Z,6.63
2022-11-16T23:25:43.101Z,6.97
2022-11-16T23:28:34.010Z,5.05
2022-11-16T23:31:20.588Z,5.40
2022-11-16T23:33:53.363Z,5.28
2022-11-16T23:36:21.164Z,4.78
2022-11-16T23:38:53.833Z,8.05
2022-11-16T23:41:40.153Z,5.93
2022-11-16T23:44:08.165Z,5.28
2022-11-16T23:46:37.041Z,7.10
2022-11-16T23:49:12.402Z,9.52
2022-11-16T23:51:43.139Z,5.63
2022-11-16T23:54:16.768Z,9.23
2022-11-16T23:56:44.494Z,4.18
2022-11-16T23:59:11.920Z,8.43
